Terminal Aerodrome Forecast
Issued by NWS

Home | Current Version | Previous Version | Text Only | Print | Product List | Glossary On
Versions: 1 2 3 4 5 6 7 8 9 10 11 12 13 14 15 16 17 18 19
357
FTUS43 KLSX 252320
TAFSUS
TAF
KSUS 252320Z 2600/2624 35009KT P6SM VCSH OVC050
      TEMPO 2602/2606 -RA
     FM260600 05005KT P6SM OVC050
     FM261400 VRB03KT P6SM SCT060=

USA.gov is the U.S. government's official web portal to all federal, state and local government web resources and services.